createdAt,value
2023-05-21T00:00:39.655Z,17.00
2023-05-21T00:03:30.289Z,16.70
2023-05-21T00:06:17.208Z,16.80
2023-05-21T00:09:04.928Z,16.80
2023-05-21T00:11:51.384Z,16.90
2023-05-21T00:14:38.096Z,16.80
2023-05-21T00:17:26.135Z,16.70
2023-05-21T00:20:14.557Z,16.80
2023-05-21T00:23:03.895Z,16.80
2023-05-21T00:25:50.551Z,16.70
2023-05-21T00:28:37.378Z,16.50
2023-05-21T00:31:24.516Z,16.50
2023-05-21T00:34:11.281Z,16.50
2023-05-21T00:36:59.335Z,16.60
2023-05-21T00:39:46.020Z,16.40
2023-05-21T00:42:32.538Z,16.40
2023-05-21T00:45:19.161Z,16.10
2023-05-21T00:48:07.976Z,16.10
2023-05-21T00:50:55.543Z,16.00
2023-05-21T00:53:45.208Z,16.00
2023-05-21T00:56:33.341Z,16.10
2023-05-21T00:59:20.331Z,16.00
2023-05-21T01:02:09.366Z,15.90
2023-05-21T01:04:56.560Z,15.70
2023-05-21T01:07:43.460Z,15.50
2023-05-21T01:10:31.734Z,15.50
2023-05-21T01:13:20.590Z,15.60
2023-05-21T01:16:08.660Z,15.40
2023-05-21T01:18:55.531Z,15.50
2023-05-21T01:21:46.269Z,15.40
2023-05-21T01:24:34.395Z,15.30
2023-05-21T01:27:20.982Z,15.40
2023-05-21T01:30:09.382Z,15.20
2023-05-21T01:33:01.932Z,15.30
2023-05-21T01:35:53.381Z,15.30
2023-05-21T01:38:44.144Z,15.20
2023-05-21T01:41:38.046Z,15.30
2023-05-21T01:44:26.891Z,15.20
2023-05-21T01:47:15.103Z,15.10
2023-05-21T01:50:02.757Z,15.10
2023-05-21T01:52:54.050Z,15.00
2023-05-21T01:55:41.992Z,15.10
2023-05-21T01:58:30.178Z,15.30
2023-05-21T02:01:16.941Z,15.40
2023-05-21T02:04:03.823Z,15.40
2023-05-21T02:06:54.225Z,15.50
2023-05-21T02:09:40.936Z,15.30
2023-05-21T02:12:28.334Z,15.20
2023-05-21T02:15:17.916Z,15.20
2023-05-21T02:18:04.975Z,15.30
2023-05-21T02:20:51.845Z,15.20
2023-05-21T02:23:39.059Z,15.20
2023-05-21T02:26:25.980Z,15.40
2023-05-21T02:29:12.942Z,15.40
2023-05-21T02:32:01.278Z,15.50
2023-05-21T02:34:48.177Z,15.60
2023-05-21T02:37:35.989Z,15.50
2023-05-21T02:40:22.819Z,15.30
2023-05-21T02:43:09.268Z,15.40
2023-05-21T02:45:55.990Z,15.50
2023-05-21T02:48:44.246Z,15.30
2023-05-21T02:51:31.609Z,15.20
2023-05-21T02:54:18.029Z,15.30
2023-05-21T02:57:04.985Z,15.00
2023-05-21T02:59:52.126Z,14.90
2023-05-21T03:02:38.970Z,14.90
2023-05-21T03:05:26.958Z,14.80
2023-05-21T03:08:13.665Z,14.80
2023-05-21T03:11:00.436Z,14.60
2023-05-21T03:13:47.280Z,14.50
2023-05-21T03:16:34.726Z,14.40
2023-05-21T03:19:21.435Z,14.50
2023-05-21T03:22:09.640Z,14.50
2023-05-21T03:24:58.246Z,14.40
2023-05-21T03:27:44.830Z,14.20
2023-05-21T03:31:00.612Z,14.30
2023-05-21T03:34:00.952Z,14.20
2023-05-21T03:36:51.498Z,14.20
2023-05-21T03:39:40.126Z,14.10
2023-05-21T03:42:27.065Z,13.90
2023-05-21T03:45:15.017Z,13.90
2023-05-21T03:48:36.468Z,13.90
2023-05-21T03:51:24.623Z,13.90
2023-05-21T03:54:12.013Z,13.90
2023-05-21T03:57:00.950Z,13.90
2023-05-21T03:59:48.348Z,14.00
2023-05-21T04:02:35.052Z,14.20
2023-05-21T04:05:21.921Z,14.30
2023-05-21T04:08:10.280Z,14.40
2023-05-21T04:10:57.078Z,14.50
2023-05-21T04:13:46.091Z,14.40
2023-05-21T04:16:34.779Z,14.60
2023-05-21T04:19:21.979Z,14.70
2023-05-21T04:22:11.091Z,14.90
2023-05-21T04:24:59.626Z,14.90
2023-05-21T04:27:50.208Z,14.80
2023-05-21T04:30:38.714Z,14.80
2023-05-21T04:33:25.564Z,14.70
2023-05-21T04:36:12.728Z,14.60
2023-05-21T04:38:59.899Z,14.70
2023-05-21T04:41:46.488Z,14.70
2023-05-21T04:44:33.718Z,14.80
2023-05-21T04:47:22.196Z,14.80
2023-05-21T04:50:10.439Z,14.80
2023-05-21T04:52:58.731Z,14.80
2023-05-21T04:55:47.027Z,14.90
2023-05-21T04:58:34.292Z,15.00
2023-05-21T05:01:22.927Z,15.10
2023-05-21T05:04:11.040Z,15.10
2023-05-21T05:06:58.162Z,15.00
2023-05-21T05:09:44.980Z,14.90
2023-05-21T05:12:31.515Z,14.90
2023-05-21T05:15:18.436Z,15.00
2023-05-21T05:18:05.320Z,15.30
2023-05-21T05:20:53.413Z,15.10
2023-05-21T05:23:40.292Z,15.10
2023-05-21T05:26:28.274Z,15.20
2023-05-21T05:29:16.385Z,15.40
2023-05-21T05:32:03.312Z,15.60
2023-05-21T05:34:50.244Z,15.70
2023-05-21T05:37:38.335Z,15.80
2023-05-21T05:40:25.662Z,16.00
2023-05-21T05:43:13.954Z,16.50
2023-05-21T05:46:00.886Z,16.90
2023-05-21T05:48:47.682Z,17.20
2023-05-21T05:51:34.935Z,17.80
2023-05-21T05:54:23.448Z,18.30
2023-05-21T05:57:10.076Z,18.60
2023-05-21T05:59:57.846Z,19.10
2023-05-21T06:02:44.784Z,19.60
2023-05-21T06:05:31.575Z,19.70
2023-05-21T06:08:18.386Z,20.10
2023-05-21T06:11:07.069Z,20.30
2023-05-21T06:13:53.857Z,20.60
2023-05-21T06:16:41.897Z,20.80
2023-05-21T06:19:28.734Z,21.10
2023-05-21T06:22:16.171Z,21.40
2023-05-21T06:25:03.719Z,21.90
2023-05-21T06:27:51.782Z,22.00
2023-05-21T06:30:44.061Z,22.20
2023-05-21T06:33:31.963Z,22.50
2023-05-21T06:36:19.112Z,22.70
2023-05-21T06:39:05.994Z,22.60
2023-05-21T06:41:52.719Z,22.40
2023-05-21T06:45:13.437Z,22.10
2023-05-21T06:48:03.218Z,22.00
2023-05-21T06:50:50.294Z,22.00
2023-05-21T06:53:36.973Z,21.70
2023-05-21T06:56:24.108Z,21.70
2023-05-21T06:59:13.714Z,21.80
2023-05-21T07:02:04.461Z,21.30
2023-05-21T07:04:51.938Z,21.30
2023-05-21T07:07:39.391Z,21.20
2023-05-21T07:10:26.395Z,20.90
2023-05-21T07:13:13.254Z,20.80
2023-05-21T07:16:00.066Z,20.70
2023-05-21T07:18:48.160Z,20.30
2023-05-21T07:21:35.077Z,20.50
2023-05-21T07:24:22.469Z,20.60
2023-05-21T07:27:24.290Z,20.90
2023-05-21T07:30:13.380Z,21.30
2023-05-21T07:33:01.422Z,21.50
2023-05-21T07:35:49.745Z,21.70
2023-05-21T07:38:36.715Z,21.80
2023-05-21T07:41:23.730Z,21.80
2023-05-21T07:44:11.148Z,22.10
2023-05-21T07:47:01.253Z,22.40
2023-05-21T07:49:48.105Z,22.70
2023-05-21T07:52:37.013Z,22.80
2023-05-21T07:55:23.915Z,23.10
2023-05-21T07:58:11.702Z,23.70
2023-05-21T08:00:58.596Z,23.80
2023-05-21T08:03:46.114Z,24.00
2023-05-21T08:06:34.184Z,24.00
2023-05-21T08:09:22.435Z,24.10
2023-05-21T08:12:09.621Z,24.10
2023-05-21T08:14:59.199Z,24.40
2023-05-21T08:17:45.869Z,25.20
2023-05-21T08:20:33.466Z,26.00
2023-05-21T08:23:21.266Z,26.30
2023-05-21T08:26:17.069Z,26.80
2023-05-21T08:29:03.918Z,27.30
2023-05-21T08:31:50.893Z,27.60
2023-05-21T08:34:37.494Z,26.90
2023-05-21T08:37:39.741Z,27.20
2023-05-21T08:40:35.477Z,27.30
2023-05-21T08:43:24.149Z,27.10
2023-05-21T08:46:11.999Z,27.00
2023-05-21T08:49:02.769Z,27.30
2023-05-21T08:51:51.440Z,27.00
2023-05-21T08:54:40.722Z,27.90
2023-05-21T08:57:29.207Z,27.50
2023-05-21T09:00:20.696Z,27.60
2023-05-21T09:03:10.375Z,27.40
2023-05-21T09:05:58.985Z,26.40
2023-05-21T09:08:59.764Z,26.40
2023-05-21T09:11:53.350Z,26.00
2023-05-21T09:14:41.562Z,26.00
2023-05-21T09:17:36.808Z,25.90
2023-05-21T09:20:40.097Z,25.40
2023-05-21T09:23:29.964Z,24.50
2023-05-21T09:26:16.853Z,23.60
2023-05-21T09:29:03.823Z,23.60
2023-05-21T09:31:51.506Z,23.90
2023-05-21T09:34:39.643Z,24.10
2023-05-21T09:37:28.120Z,24.30
2023-05-21T09:40:17.303Z,24.50
2023-05-21T09:43:06.504Z,24.50
2023-05-21T09:45:54.077Z,24.40
2023-05-21T09:48:43.997Z,24.20
2023-05-21T09:51:40.138Z,24.30
2023-05-21T09:54:32.299Z,24.50
2023-05-21T09:57:24.974Z,24.60
2023-05-21T10:00:21.322Z,24.70
2023-05-21T10:03:12.313Z,24.90
2023-05-21T10:06:00.873Z,25.20
2023-05-21T10:08:53.336Z,25.00
2023-05-21T10:11:44.876Z,25.10
2023-05-21T10:14:34.169Z,25.20
2023-05-21T10:17:21.566Z,25.40
2023-05-21T10:20:11.609Z,25.30
2023-05-21T10:22:59.284Z,25.30
2023-05-21T10:25:48.334Z,25.20
2023-05-21T10:28:35.921Z,25.50
2023-05-21T10:31:23.580Z,25.30
2023-05-21T10:34:12.362Z,25.10
2023-05-21T10:37:00.528Z,25.50
2023-05-21T10:39:49.041Z,26.00
2023-05-21T10:43:07.757Z,26.40
2023-05-21T10:46:20.379Z,26.10
2023-05-21T10:49:36.286Z,25.90
2023-05-21T10:52:36.572Z,25.80
2023-05-21T10:55:37.572Z,25.90
2023-05-21T10:58:43.820Z,26.40
2023-05-21T11:01:33.950Z,26.20
2023-05-21T11:04:24.136Z,26.10
2023-05-21T11:07:11.877Z,25.60
2023-05-21T11:10:31.210Z,25.50
2023-05-21T11:13:19.658Z,25.30
2023-05-21T11:16:08.937Z,25.20
2023-05-21T11:19:00.047Z,25.30
2023-05-21T11:21:52.190Z,25.50
2023-05-21T11:24:40.522Z,25.30
2023-05-21T11:27:34.643Z,25.40
2023-05-21T11:30:21.265Z,25.60
2023-05-21T11:33:22.237Z,25.10
2023-05-21T11:36:14.268Z,25.10
2023-05-21T11:39:10.791Z,24.70
2023-05-21T11:42:02.438Z,24.30
2023-05-21T11:44:50.836Z,24.60
2023-05-21T11:47:37.715Z,24.70
2023-05-21T11:50:26.418Z,24.90
2023-05-21T11:53:13.378Z,25.10
2023-05-21T11:56:02.971Z,25.20
2023-05-21T11:58:49.573Z,25.00
2023-05-21T12:01:36.430Z,24.90
2023-05-21T12:04:23.969Z,24.90
2023-05-21T12:07:13.224Z,24.70
2023-05-21T12:10:01.354Z,24.80
2023-05-21T12:12:55.619Z,24.80
2023-05-21T12:15:43.773Z,24.90
2023-05-21T12:18:30.883Z,25.00
2023-05-21T12:21:18.352Z,25.00
2023-05-21T12:24:07.070Z,24.90
2023-05-21T12:26:55.057Z,24.90
2023-05-21T12:29:44.340Z,24.90
2023-05-21T12:32:30.790Z,25.00
2023-05-21T12:35:27.221Z,25.00
2023-05-21T12:38:13.980Z,24.90
2023-05-21T12:41:06.034Z,24.90
2023-05-21T12:43:52.828Z,25.00
2023-05-21T12:46:39.829Z,24.60
2023-05-21T12:49:34.925Z,24.60
2023-05-21T12:52:22.102Z,24.60
2023-05-21T12:55:10.480Z,24.40
2023-05-21T12:58:08.138Z,24.40
2023-05-21T13:00:56.529Z,24.40
2023-05-21T13:03:44.124Z,24.50
2023-05-21T13:06:31.435Z,24.70
2023-05-21T13:09:18.153Z,24.70
2023-05-21T13:12:05.412Z,24.80
2023-05-21T13:14:54.530Z,24.60
2023-05-21T13:17:41.152Z,24.80
2023-05-21T13:20:28.056Z,24.60
2023-05-21T13:23:15.797Z,24.50
2023-05-21T13:26:02.466Z,24.60
2023-05-21T13:28:49.276Z,24.80
2023-05-21T13:31:37.481Z,24.60
2023-05-21T13:34:25.521Z,24.70
2023-05-21T13:37:12.168Z,24.50
2023-05-21T13:39:59.085Z,24.60
2023-05-21T13:42:46.648Z,24.90
2023-05-21T13:45:33.964Z,25.00
2023-05-21T13:48:22.217Z,24.70
2023-05-21T13:51:14.208Z,24.90
2023-05-21T13:54:04.672Z,24.90
2023-05-21T13:56:51.318Z,25.10
2023-05-21T13:59:40.353Z,25.10
2023-05-21T14:02:27.493Z,25.20
2023-05-21T14:05:15.667Z,25.30
2023-05-21T14:08:02.216Z,25.30
2023-05-21T14:10:49.108Z,25.50
2023-05-21T14:13:36.131Z,25.50
2023-05-21T14:16:24.973Z,25.60
2023-05-21T14:19:11.603Z,25.60
2023-05-21T14:21:59.947Z,25.60
2023-05-21T14:24:47.047Z,25.40
2023-05-21T14:27:33.916Z,25.20
2023-05-21T14:30:20.945Z,25.20
2023-05-21T14:33:07.930Z,24.90
2023-05-21T14:35:54.728Z,24.90
2023-05-21T14:38:42.985Z,24.80
2023-05-21T14:41:30.309Z,24.80
2023-05-21T14:44:17.151Z,24.80
2023-05-21T14:47:04.150Z,24.70
2023-05-21T14:49:51.713Z,24.90
2023-05-21T14:52:38.532Z,25.20
2023-05-21T14:55:26.787Z,25.30
2023-05-21T14:58:13.694Z,25.10
2023-05-21T15:01:00.695Z,24.90
2023-05-21T15:03:47.871Z,25.00
2023-05-21T15:06:35.074Z,25.20
2023-05-21T15:09:22.203Z,25.30
2023-05-21T15:12:10.446Z,25.40
2023-05-21T15:14:57.314Z,25.40
2023-05-21T15:17:44.697Z,25.60
2023-05-21T15:20:31.669Z,25.60
2023-05-21T15:23:18.225Z,25.60
2023-05-21T15:26:05.086Z,25.60
2023-05-21T15:28:53.405Z,25.60
2023-05-21T15:31:40.483Z,25.40
2023-05-21T15:34:27.412Z,25.50
2023-05-21T15:37:15.368Z,25.40
2023-05-21T15:40:02.370Z,25.40
2023-05-21T15:42:49.209Z,25.40
2023-05-21T15:45:38.324Z,25.30
2023-05-21T15:48:25.103Z,25.30
2023-05-21T15:51:12.228Z,25.30
2023-05-21T15:53:59.215Z,25.30
2023-05-21T15:56:46.291Z,25.20
2023-05-21T15:59:33.182Z,25.30
2023-05-21T16:02:21.372Z,25.30
2023-05-21T16:05:08.600Z,25.30
2023-05-21T16:07:55.630Z,25.30
2023-05-21T16:10:42.544Z,25.40
2023-05-21T16:13:29.221Z,25.40
2023-05-21T16:16:16.127Z,25.40
2023-05-21T16:19:04.349Z,25.30
2023-05-21T16:21:51.248Z,25.10
2023-05-21T16:24:38.143Z,25.00
2023-05-21T16:27:25.088Z,24.90
2023-05-21T16:30:14.248Z,24.90
2023-05-21T16:33:00.983Z,24.90
2023-05-21T16:35:49.317Z,24.80
2023-05-21T16:38:36.334Z,24.60
2023-05-21T16:41:23.021Z,24.70
2023-05-21T16:44:09.737Z,24.80
2023-05-21T16:46:56.581Z,24.80
2023-05-21T16:49:43.220Z,24.80
2023-05-21T16:52:31.606Z,24.90
2023-05-21T16:55:18.563Z,25.00
2023-05-21T16:58:06.790Z,24.80
2023-05-21T17:00:53.594Z,24.50
2023-05-21T17:03:43.076Z,24.40
2023-05-21T17:06:30.198Z,24.40
2023-05-21T17:09:18.946Z,24.50
2023-05-21T17:12:06.310Z,24.50
2023-05-21T17:14:53.903Z,24.40
2023-05-21T17:17:40.656Z,24.30
2023-05-21T17:20:27.464Z,24.20
2023-05-21T17:23:14.764Z,24.00
2023-05-21T17:26:03.049Z,23.90
2023-05-21T17:28:49.953Z,23.90
2023-05-21T17:31:36.633Z,24.00
2023-05-21T17:34:26.163Z,23.80
2023-05-21T17:37:12.645Z,23.90
2023-05-21T17:39:59.616Z,24.00
2023-05-21T17:42:47.998Z,23.90
2023-05-21T17:45:35.214Z,23.80
2023-05-21T17:48:22.047Z,23.80
2023-05-21T17:51:08.901Z,23.80
2023-05-21T17:53:55.939Z,23.80
2023-05-21T17:56:45.567Z,23.60
2023-05-21T17:59:34.600Z,23.60
2023-05-21T18:02:21.440Z,23.40
2023-05-21T18:05:08.824Z,23.40
2023-05-21T18:07:55.810Z,23.40
2023-05-21T18:10:42.665Z,23.20
2023-05-21T18:13:30.406Z,23.10
2023-05-21T18:16:18.944Z,23.00
2023-05-21T18:19:06.710Z,22.90
2023-05-21T18:21:53.553Z,22.80
2023-05-21T18:24:40.360Z,22.60
2023-05-21T18:27:26.937Z,22.50
2023-05-21T18:30:14.722Z,22.30
2023-05-21T18:33:02.998Z,22.20
2023-05-21T18:35:49.655Z,22.00
2023-05-21T18:38:36.549Z,21.80
2023-05-21T18:41:23.593Z,21.80
2023-05-21T18:44:10.189Z,21.70
2023-05-21T18:46:57.750Z,21.70
2023-05-21T18:49:45.882Z,21.70
2023-05-21T18:52:32.757Z,21.70
2023-05-21T18:55:19.609Z,21.60
2023-05-21T18:58:06.481Z,21.60
2023-05-21T19:00:53.264Z,21.60
2023-05-21T19:03:40.227Z,21.50
2023-05-21T19:06:28.189Z,21.40
2023-05-21T19:09:15.145Z,21.10
2023-05-21T19:12:02.084Z,21.10
2023-05-21T19:14:48.967Z,20.70
2023-05-21T19:17:36.265Z,20.50
2023-05-21T19:20:24.906Z,20.50
2023-05-21T19:23:13.249Z,20.30
2023-05-21T19:25:59.830Z,20.10
2023-05-21T19:28:46.518Z,19.90
2023-05-21T19:31:34.852Z,19.70
2023-05-21T19:34:21.818Z,19.40
2023-05-21T19:37:08.688Z,19.30
2023-05-21T19:39:57.093Z,19.30
2023-05-21T19:42:43.989Z,19.20
2023-05-21T19:45:30.908Z,19.20
2023-05-21T19:48:17.763Z,19.20
2023-05-21T19:51:05.648Z,19.20
2023-05-21T19:53:52.290Z,19.20
2023-05-21T19:56:40.081Z,19.10
2023-05-21T19:59:27.215Z,19.10
2023-05-21T20:02:16.875Z,19.00
2023-05-21T20:05:03.498Z,18.90
2023-05-21T20:07:50.433Z,18.80
2023-05-21T20:10:37.552Z,18.70
2023-05-21T20:13:26.115Z,18.70
2023-05-21T20:16:12.959Z,18.80
2023-05-21T20:19:01.751Z,18.80
2023-05-21T20:21:48.446Z,18.70
2023-05-21T20:24:35.406Z,18.40
2023-05-21T20:27:22.420Z,18.20
2023-05-21T20:30:11.420Z,18.20
2023-05-21T20:32:58.443Z,18.20
2023-05-21T20:35:44.961Z,18.20
2023-05-21T20:38:33.134Z,18.40
2023-05-21T20:41:20.041Z,18.40
2023-05-21T20:44:07.248Z,18.50
2023-05-21T20:46:55.441Z,18.40
2023-05-21T20:49:42.134Z,18.40
2023-05-21T20:52:29.024Z,18.40
2023-05-21T20:55:15.511Z,18.40
2023-05-21T20:58:03.360Z,18.20
2023-05-21T21:00:50.646Z,18.20
2023-05-21T21:03:41.257Z,18.20
2023-05-21T21:06:30.875Z,18.30
2023-05-21T21:09:17.710Z,18.40
2023-05-21T21:12:14.493Z,18.60
2023-05-21T21:15:11.307Z,18.50
2023-05-21T21:17:57.988Z,18.30
2023-05-21T21:20:49.489Z,18.20
2023-05-21T21:23:36.176Z,18.10
2023-05-21T21:26:23.384Z,18.20
2023-05-21T21:29:10.143Z,18.20
2023-05-21T21:31:58.236Z,18.20
2023-05-21T21:34:45.165Z,18.10
2023-05-21T21:37:32.953Z,18.00
2023-05-21T21:40:19.448Z,17.80
2023-05-21T21:43:06.083Z,17.60
2023-05-21T21:45:53.184Z,17.40
2023-05-21T21:48:39.875Z,17.30
2023-05-21T21:51:26.778Z,17.30
2023-05-21T21:54:14.438Z,17.20
2023-05-21T21:57:01.474Z,17.20
2023-05-21T21:59:48.326Z,17.40
2023-05-21T22:02:35.306Z,17.30
2023-05-21T22:05:22.046Z,17.30
2023-05-21T22:08:08.417Z,17.30
2023-05-21T22:10:56.696Z,17.50
2023-05-21T22:13:44.242Z,17.70
2023-05-21T22:16:30.826Z,17.70
2023-05-21T22:19:20.519Z,17.40
2023-05-21T22:22:07.741Z,17.50
2023-05-21T22:24:54.786Z,17.50
2023-05-21T22:27:43.105Z,17.60
2023-05-21T22:30:29.773Z,17.50
2023-05-21T22:33:17.161Z,17.60
2023-05-21T22:36:03.782Z,17.60
2023-05-21T22:38:50.687Z,17.60
2023-05-21T22:41:37.763Z,17.60
2023-05-21T22:44:25.737Z,17.50
2023-05-21T22:47:12.228Z,17.50
2023-05-21T22:50:00.666Z,17.50
2023-05-21T22:52:47.421Z,17.60
2023-05-21T22:55:34.156Z,17.50
2023-05-21T22:58:20.920Z,17.40
2023-05-21T23:01:09.260Z,17.40
2023-05-21T23:03:55.793Z,17.40
2023-05-21T23:06:43.569Z,17.40
2023-05-21T23:09:30.459Z,17.40
2023-05-21T23:12:17.389Z,17.40
2023-05-21T23:15:05.562Z,17.30
2023-05-21T23:17:53.808Z,17.10
2023-05-21T23:20:41.936Z,16.80
2023-05-21T23:23:29.092Z,16.50
2023-05-21T23:26:15.956Z,16.10
2023-05-21T23:29:03.139Z,16.10
2023-05-21T23:31:50.003Z,16.00
2023-05-21T23:34:38.141Z,15.90
2023-05-21T23:37:25.062Z,16.10
2023-05-21T23:40:12.727Z,16.20
2023-05-21T23:42:59.484Z,16.40
2023-05-21T23:45:46.630Z,16.50
2023-05-21T23:48:33.671Z,16.40
2023-05-21T23:51:22.167Z,16.40
2023-05-21T23:54:09.000Z,16.10
2023-05-21T23:56:55.689Z,15.90
2023-05-21T23:59:42.622Z,15.80
